createdAt,value
2022-08-23T00:02:27.439Z,98895.28
2022-08-23T00:05:08.441Z,98902.88
2022-08-23T00:07:41.057Z,98891.53
2022-08-23T00:10:15.997Z,98893.44
2022-08-23T00:12:45.941Z,98894.25
2022-08-23T00:15:17.111Z,98905.66
2022-08-23T00:17:44.851Z,98911.09
2022-08-23T00:20:17.004Z,98913.28
2022-08-23T00:22:44.429Z,98917.88
2022-08-23T00:25:14.288Z,98918.47
2022-08-23T00:27:41.754Z,98919.28
2022-08-23T00:30:13.124Z,98923.38
2022-08-23T00:32:42.419Z,98919.84
2022-08-23T00:35:12.386Z,98918.25
2022-08-23T00:38:31.575Z,98929.09
2022-08-23T00:40:36.225Z,98935.59
2022-08-23T00:43:31.755Z,98937.22
2022-08-23T00:46:46.719Z,98936.66
2022-08-23T00:49:16.735Z,98940.19
2022-08-23T00:52:03.628Z,98939.91
2022-08-23T00:54:33.266Z,98943.72
2022-08-23T00:57:05.699Z,98940.19
2022-08-23T00:59:33.775Z,98947.50
2022-08-23T01:02:01.884Z,98951.31
2022-08-23T01:04:39.919Z,98932.63
2022-08-23T01:07:35.107Z,98938.88
2022-08-23T01:10:20.013Z,98939.66
2022-08-23T01:12:58.468Z,98940.50
2022-08-23T01:15:42.015Z,98937.78
2022-08-23T01:18:15.000Z,98933.44
2022-08-23T01:21:16.704Z,98931.84
2022-08-23T01:23:49.507Z,98933.44
2022-08-23T01:26:21.860Z,98938.88
2022-08-23T01:28:52.241Z,98937.25
2022-08-23T01:31:22.438Z,98938.88
2022-08-23T01:34:05.009Z,98941.06
2022-08-23T01:36:33.348Z,98934.81
2022-08-23T01:39:01.070Z,98932.94
2022-08-23T01:41:28.635Z,98934.03
2022-08-23T01:43:55.840Z,98933.22
2022-08-23T01:46:26.973Z,98935.13
2022-08-23T01:48:55.685Z,98944.06
2022-08-23T01:51:25.504Z,98935.44
2022-08-23T01:53:53.196Z,98927.81
2022-08-23T01:56:38.701Z,98927.00
2022-08-23T01:59:13.345Z,98929.19
2022-08-23T02:01:45.222Z,98923.78
2022-08-23T02:04:12.726Z,98936.22
2022-08-23T02:06:39.947Z,98940.03
2022-08-23T02:09:17.306Z,98936.81
2022-08-23T02:11:47.173Z,98943.81
2022-08-23T02:14:20.686Z,98940.31
2022-08-23T02:17:04.311Z,98938.41
2022-08-23T02:19:38.354Z,98946.03
2022-08-23T02:22:08.782Z,98939.53
2022-08-23T02:24:45.058Z,98936.81
2022-08-23T02:27:17.114Z,98936.81
2022-08-23T02:29:47.452Z,98929.75
2022-08-23T02:32:18.163Z,98939.78
2022-08-23T02:34:51.048Z,98935.19
2022-08-23T02:37:31.986Z,98936.25
2022-08-23T02:39:59.154Z,98953.31
2022-08-23T02:42:26.520Z,98953.63
2022-08-23T02:44:54.554Z,98953.63
2022-08-23T02:47:22.190Z,98953.63
2022-08-23T02:50:10.168Z,98957.41
2022-08-23T02:52:37.557Z,98955.81
2022-08-23T02:55:07.666Z,98949.59
2022-08-23T02:57:35.441Z,98949.59
2022-08-23T03:00:11.448Z,98949.59
2022-08-23T03:02:40.581Z,98953.13
2022-08-23T03:05:09.951Z,98943.38
2022-08-23T03:07:37.971Z,98947.69
2022-08-23T03:10:07.451Z,98959.63
2022-08-23T03:12:37.931Z,98954.19
2022-08-23T03:15:06.834Z,98961.81
2022-08-23T03:17:35.367Z,98963.41
2022-08-23T03:20:06.082Z,98963.41
2022-08-23T03:22:34.342Z,98961.81
2022-08-23T03:25:02.060Z,98964.50
2022-08-23T03:27:45.097Z,98960.19
2022-08-23T03:30:17.775Z,98961.81
2022-08-23T03:32:51.935Z,98958.59
2022-08-23T03:35:19.843Z,98960.19
2022-08-23T03:37:47.097Z,98965.59
2022-08-23T03:40:16.282Z,98976.72
2022-08-23T03:42:43.790Z,98987.25
2022-08-23T03:45:11.843Z,98979.44
2022-08-23T03:47:39.290Z,98984.03
2022-08-23T03:50:07.755Z,98984.03
2022-08-23T03:52:36.609Z,98974.28
2022-08-23T03:55:04.469Z,98986.22
2022-08-23T03:57:34.613Z,98985.13
2022-08-23T04:00:06.381Z,98988.41
2022-08-23T04:02:41.552Z,98984.59
2022-08-23T04:05:12.359Z,98988.41
2022-08-23T04:08:06.130Z,98990.00
2022-08-23T04:10:33.450Z,98995.44
2022-08-23T04:13:01.551Z,98998.44
2022-08-23T04:15:29.306Z,99000.84
2022-08-23T04:17:59.563Z,98999.25
2022-08-23T04:20:27.794Z,99009.78
2022-08-23T04:22:58.875Z,99005.19
2022-08-23T04:25:33.627Z,99007.88
2022-08-23T04:28:03.620Z,98996.25
2022-08-23T04:30:33.368Z,98997.88
2022-08-23T04:33:01.842Z,98993.22
2022-08-23T04:35:30.971Z,98995.94
2022-08-23T04:37:58.339Z,98989.44
2022-08-23T04:40:45.279Z,98994.56
2022-08-23T04:43:14.023Z,98999.72
2022-08-23T04:45:42.137Z,99005.13
2022-08-23T04:48:17.439Z,99004.00
2022-08-23T04:50:49.616Z,99009.16
2022-08-23T04:53:19.375Z,99013.19
2022-08-23T04:55:56.929Z,99021.84
2022-08-23T04:58:24.442Z,99020.75
2022-08-23T05:00:53.239Z,99018.56
2022-08-23T05:03:29.804Z,99029.91
2022-08-23T05:05:58.810Z,99026.91
2022-08-23T05:08:35.472Z,99030.13
2022-08-23T05:11:07.786Z,99024.97
2022-08-23T05:13:38.869Z,99035.22
2022-08-23T05:16:08.770Z,99040.09
2022-08-23T05:18:41.409Z,99040.59
2022-08-23T05:21:18.915Z,99041.94
2022-08-23T05:23:50.759Z,99038.91
2022-08-23T05:26:22.343Z,99044.59
2022-08-23T05:28:50.665Z,99039.38
2022-08-23T05:31:27.497Z,99049.66
2022-08-23T05:33:59.458Z,99057.75
2022-08-23T05:36:47.622Z,99059.91
2022-08-23T05:39:26.402Z,99061.22
2022-08-23T05:42:03.285Z,99059.84
2022-08-23T05:44:34.516Z,99060.34
2022-08-23T05:47:10.705Z,99062.19
2022-08-23T06:02:37.326Z,99061.03
2022-08-23T06:05:06.870Z,99065.56
2022-08-23T06:07:36.424Z,99054.34
2022-08-23T06:10:05.665Z,99066.47
2022-08-23T06:12:34.789Z,99066.91
2022-08-23T06:15:03.108Z,99078.00
2022-08-23T06:17:32.018Z,99079.00
2022-08-23T06:19:59.973Z,99076.75
2022-08-23T06:22:57.250Z,99088.34
2022-08-23T06:25:24.603Z,99088.59
2022-08-23T06:27:55.918Z,99087.41
2022-08-23T06:30:24.113Z,99092.69
2022-08-23T06:32:57.195Z,99093.72
2022-08-23T06:35:43.173Z,99105.03
2022-08-23T06:38:41.759Z,99099.63
2022-08-23T06:41:22.917Z,99099.47
2022-08-23T06:44:09.519Z,99098.31
2022-08-23T06:46:57.544Z,99095.69
2022-08-23T06:49:27.601Z,99101.00
2022-08-23T06:51:57.943Z,99099.00
2022-08-23T06:54:47.668Z,99103.44
2022-08-23T06:57:32.791Z,99092.41
2022-08-23T07:00:22.420Z,99092.41
2022-08-23T07:03:11.912Z,99088.78
2022-08-23T07:06:12.035Z,99093.22
2022-08-23T07:08:40.358Z,99095.44
2022-08-23T07:11:07.797Z,99094.84
2022-08-23T07:13:40.698Z,99102.09
2022-08-23T07:16:08.149Z,99095.44
2022-08-23T07:18:35.861Z,99097.09
2022-08-23T07:21:05.917Z,99091.03
2022-08-23T07:23:35.013Z,99093.84
2022-08-23T07:26:11.438Z,99099.19
2022-08-23T07:28:41.622Z,99100.69
2022-08-23T07:31:24.262Z,99101.09
2022-08-23T07:33:51.788Z,99107.09
2022-08-23T07:36:24.168Z,99102.22
2022-08-23T07:38:53.671Z,99101.19
2022-08-23T07:41:25.570Z,99101.28
2022-08-23T07:43:55.136Z,99105.41
2022-08-23T07:46:22.346Z,99110.59
2022-08-23T07:48:58.603Z,99123.88
2022-08-23T07:51:34.604Z,99117.56
2022-08-23T07:54:07.942Z,99118.28
2022-08-23T07:56:44.439Z,99128.13
2022-08-23T07:59:47.783Z,99110.41
2022-08-23T08:02:53.740Z,99109.97
2022-08-23T08:05:27.662Z,99105.25
2022-08-23T08:07:56.901Z,99104.63
2022-08-23T08:10:24.325Z,99112.53
2022-08-23T08:12:51.926Z,99114.66
2022-08-23T08:15:20.644Z,99108.59
2022-08-23T08:17:55.068Z,99115.84
2022-08-23T08:20:23.344Z,99112.34
2022-08-23T08:23:11.463Z,99118.47
2022-08-23T08:26:07.326Z,99110.91
2022-08-23T08:28:37.660Z,99111.56
2022-08-23T08:31:07.234Z,99113.34
2022-08-23T08:33:34.503Z,99123.00
2022-08-23T08:36:04.910Z,99126.50
2022-08-23T08:38:47.902Z,99122.63
2022-08-23T08:41:32.803Z,99126.00
2022-08-23T08:44:16.826Z,99118.75
2022-08-23T08:46:57.228Z,99117.94
2022-08-23T08:50:03.838Z,99125.44
2022-08-23T08:52:39.411Z,99125.59
2022-08-23T08:55:38.131Z,99131.00
2022-08-23T08:58:07.265Z,99131.59
2022-08-23T09:00:38.826Z,99125.88
2022-08-23T09:03:16.915Z,99129.09
2022-08-23T09:06:16.294Z,99123.44
2022-08-23T09:09:44.542Z,99118.88
2022-08-23T09:12:53.353Z,99123.53
2022-08-23T09:15:46.530Z,99121.97
2022-08-23T09:18:17.239Z,99126.75
2022-08-23T09:20:52.110Z,99127.72
2022-08-23T09:23:32.324Z,99115.75
2022-08-23T09:26:05.499Z,99116.47
2022-08-23T09:28:38.159Z,99109.88
2022-08-23T09:31:08.746Z,99111.16
2022-08-23T09:33:46.047Z,99115.16
2022-08-23T09:36:39.895Z,99110.25
2022-08-23T09:39:35.508Z,99114.84
2022-08-23T09:42:35.921Z,99126.66
2022-08-23T09:45:35.189Z,99125.25
2022-08-23T09:48:11.886Z,99116.47
2022-08-23T09:50:57.923Z,99115.88
2022-08-23T09:53:28.204Z,99115.97
2022-08-23T09:56:11.361Z,99113.59
2022-08-23T09:58:54.122Z,99104.16
2022-08-23T10:01:39.513Z,99105.16
2022-08-23T10:04:41.450Z,99108.91
2022-08-23T10:07:43.936Z,99114.16
2022-08-23T10:10:23.920Z,99115.94
2022-08-23T10:12:56.482Z,99114.47
2022-08-23T10:16:07.764Z,99105.63
2022-08-23T10:19:15.370Z,99112.19
2022-08-23T10:22:04.978Z,99109.63
2022-08-23T10:24:45.365Z,99118.16
2022-08-23T10:27:50.727Z,99111.78
2022-08-23T10:30:34.271Z,99108.78
2022-08-23T10:33:26.676Z,99111.41
2022-08-23T10:36:28.121Z,99106.41
2022-08-23T10:39:30.357Z,99106.00
2022-08-23T10:42:41.662Z,99105.84
2022-08-23T10:45:36.334Z,99106.00
2022-08-23T10:48:38.412Z,99109.19
2022-08-23T10:51:22.631Z,99112.31
2022-08-23T10:54:06.246Z,99119.44
2022-08-23T10:56:42.935Z,99110.06
2022-08-23T10:59:24.895Z,99115.75
2022-08-23T11:02:29.605Z,99114.59
2022-08-23T11:05:32.248Z,99115.72
2022-08-23T11:08:29.934Z,99112.91
2022-08-23T11:10:58.178Z,99109.56
2022-08-23T11:13:35.235Z,99115.56
2022-08-23T11:16:15.914Z,99111.59
2022-08-23T11:18:51.309Z,99118.91
2022-08-23T11:21:33.386Z,99116.63
2022-08-23T11:24:05.505Z,99119.09
2022-08-23T11:26:37.736Z,99117.47
2022-08-23T11:29:08.252Z,99113.78
2022-08-23T11:32:24.990Z,99119.94
2022-08-23T11:35:30.362Z,99121.66
2022-08-23T11:38:05.266Z,99123.41
2022-08-23T11:41:18.722Z,99126.28
2022-08-23T11:43:57.167Z,99125.53
2022-08-23T11:46:32.468Z,99128.06
2022-08-23T11:49:31.907Z,99123.47
2022-08-23T11:52:49.774Z,99120.44
2022-08-23T11:56:05.604Z,99118.91
2022-08-23T11:59:41.546Z,99118.16
2022-08-23T12:02:34.664Z,99119.75
2022-08-23T12:05:46.694Z,99116.75
2022-08-23T12:08:27.607Z,99116.91
2022-08-23T12:10:54.986Z,99117.78
2022-08-23T12:13:22.749Z,99128.16
2022-08-23T12:16:17.511Z,99131.28
2022-08-23T12:18:52.809Z,99126.94
2022-08-23T12:21:45.751Z,99129.56
2022-08-23T12:24:25.914Z,99123.91
2022-08-23T12:27:36.675Z,99116.84
2022-08-23T12:30:20.314Z,99122.03
2022-08-23T12:33:26.173Z,99112.66
2022-08-23T12:36:35.765Z,99119.03
2022-08-23T12:39:23.890Z,99125.00
2022-08-23T12:42:04.351Z,99117.59
2022-08-23T12:44:34.453Z,99109.38
2022-08-23T12:47:20.472Z,99107.84
2022-08-23T12:50:09.185Z,99102.75
2022-08-23T12:52:38.287Z,99108.81
2022-08-23T12:55:18.906Z,99108.91
2022-08-23T12:57:56.110Z,99106.59
2022-08-23T13:00:43.429Z,99108.31
2022-08-23T13:03:27.742Z,99107.59
2022-08-23T13:06:12.938Z,99102.50
2022-08-23T13:08:57.991Z,99109.25
2022-08-23T13:11:31.389Z,99099.72
2022-08-23T13:13:59.396Z,99101.38
2022-08-23T13:16:36.594Z,99098.94
2022-08-23T13:19:31.706Z,99098.94
2022-08-23T13:22:22.613Z,99099.31
2022-08-23T13:25:31.664Z,99107.59
2022-08-23T13:28:27.166Z,99093.34
2022-08-23T13:31:08.675Z,99093.38
2022-08-23T13:33:37.251Z,99088.75
2022-08-23T13:36:16.482Z,99090.41
2022-08-23T13:38:45.167Z,99098.34
2022-08-23T13:41:38.827Z,99091.28
2022-08-23T13:44:09.977Z,99090.84
2022-08-23T13:46:47.742Z,99084.13
2022-08-23T13:49:27.458Z,99087.25
2022-08-23T13:52:32.957Z,99087.25
2022-08-23T13:54:52.598Z,99091.34
2022-08-23T13:57:22.170Z,99088.16
2022-08-23T13:59:56.095Z,99084.56
2022-08-23T14:02:24.949Z,99083.75
2022-08-23T14:04:52.469Z,99086.56
2022-08-23T14:07:19.952Z,99079.84
2022-08-23T14:09:50.090Z,99075.09
2022-08-23T14:12:24.832Z,99080.63
2022-08-23T14:14:57.633Z,99086.16
2022-08-23T14:17:26.099Z,99083.41
2022-08-23T14:22:41.552Z,99077.06
2022-08-23T14:25:10.787Z,99081.84
2022-08-23T14:27:41.854Z,99075.50
2022-08-23T14:30:22.782Z,99079.91
2022-08-23T14:32:50.271Z,99069.19
2022-08-23T14:35:17.879Z,99067.53
2022-08-23T14:40:36.482Z,99065.97
2022-08-23T14:43:05.725Z,99067.50
2022-08-23T14:45:32.883Z,99067.50
2022-08-23T14:48:00.694Z,99063.16
2022-08-23T14:50:28.701Z,99062.78
2022-08-23T14:52:57.547Z,99054.03
2022-08-23T14:55:25.382Z,99069.06
2022-08-23T14:57:52.602Z,99069.81
2022-08-23T15:00:19.955Z,99076.94
2022-08-23T15:02:50.042Z,99076.13
2022-08-23T15:05:18.309Z,99074.47
2022-08-23T15:07:45.918Z,99083.53
2022-08-23T15:13:19.532Z,99091.72
2022-08-23T15:15:51.332Z,99100.34
2022-08-23T15:18:19.276Z,99098.69
2022-08-23T15:20:47.504Z,99102.59
2022-08-23T15:23:15.436Z,99099.47
2022-08-23T15:25:44.827Z,99103.75
2022-08-23T15:28:16.754Z,99107.19
2022-08-23T15:30:46.045Z,99099.66
2022-08-23T15:33:13.604Z,99100.00
2022-08-23T15:35:48.944Z,99105.41
2022-08-23T15:38:22.979Z,99108.97
2022-08-23T15:40:53.619Z,99109.38
2022-08-23T15:43:25.862Z,99115.31
2022-08-23T15:46:12.395Z,99121.97
2022-08-23T15:48:50.293Z,99125.47
2022-08-23T15:51:19.163Z,99138.16
2022-08-23T15:53:47.890Z,99131.34
2022-08-23T15:56:28.878Z,99136.47
2022-08-23T15:58:56.621Z,99129.56
2022-08-23T16:01:25.609Z,99127.13
2022-08-23T16:03:53.507Z,99124.28
2022-08-23T16:06:21.909Z,99131.34
2022-08-23T16:08:52.496Z,99137.19
2022-08-23T16:11:21.150Z,99141.47
2022-08-23T16:13:50.088Z,99139.88
2022-08-23T16:16:27.285Z,99144.56
2022-08-23T16:18:56.934Z,99150.09
2022-08-23T16:21:27.350Z,99156.41
2022-08-23T16:23:56.594Z,99159.91
2022-08-23T16:26:35.112Z,99163.84
2022-08-23T16:29:08.682Z,99166.19
2022-08-23T16:31:39.230Z,99164.81
2022-08-23T16:34:13.813Z,99166.69
2022-08-23T16:36:45.013Z,99167.00
2022-08-23T16:39:14.614Z,99168.94
2022-08-23T16:41:42.168Z,99175.22
2022-08-23T16:44:09.885Z,99175.94
2022-08-23T16:46:41.219Z,99176.25
2022-08-23T16:49:10.806Z,99183.72
2022-08-23T16:51:38.306Z,99180.53
2022-08-23T16:54:05.910Z,99181.19
2022-08-23T16:56:34.036Z,99173.16
2022-08-23T16:59:04.550Z,99174.59
2022-08-23T17:01:49.380Z,99177.66
2022-08-23T17:04:18.476Z,99181.50
2022-08-23T17:06:46.260Z,99179.34
2022-08-23T17:09:15.482Z,99189.03
2022-08-23T17:11:44.315Z,99183.31
2022-08-23T17:14:12.661Z,99197.25
2022-08-23T17:16:41.883Z,99202.53
2022-08-23T17:19:10.966Z,99199.13
2022-08-23T17:21:38.773Z,99198.13
2022-08-23T17:24:06.331Z,99193.97
2022-08-23T17:26:34.050Z,99181.88
2022-08-23T17:29:04.594Z,99180.91
2022-08-23T17:31:31.864Z,99190.94
2022-08-23T17:34:11.372Z,99189.09
2022-08-23T17:36:51.091Z,99194.28
2022-08-23T17:39:22.857Z,99198.72
2022-08-23T17:41:51.078Z,99201.56
2022-08-23T17:44:18.335Z,99210.72
2022-08-23T17:46:47.128Z,99208.78
2022-08-23T17:49:16.526Z,99211.59
2022-08-23T17:51:44.557Z,99218.75
2022-08-23T17:54:16.080Z,99223.19
2022-08-23T17:56:50.193Z,99224.81
2022-08-23T17:59:20.366Z,99219.72
2022-08-23T18:01:47.866Z,99223.28
2022-08-23T18:04:14.908Z,99231.56
2022-08-23T18:06:42.477Z,99242.97
2022-08-23T18:09:10.810Z,99247.69
2022-08-23T18:11:37.965Z,99266.72
2022-08-23T18:14:05.995Z,99267.28
2022-08-23T18:16:35.718Z,99278.41
2022-08-23T18:19:07.112Z,99272.91
2022-08-23T18:21:41.482Z,99285.97
2022-08-23T18:24:09.551Z,99277.66
2022-08-23T18:26:56.693Z,99283.38
2022-08-23T18:29:24.437Z,99284.31
2022-08-23T18:31:51.937Z,99289.56
2022-08-23T18:34:19.967Z,99291.56
2022-08-23T18:36:47.740Z,99295.69
2022-08-23T18:39:15.996Z,99290.59
2022-08-23T18:41:43.779Z,99293.09
2022-08-23T18:44:11.730Z,99292.84
2022-08-23T18:46:42.123Z,99297.28
2022-08-23T18:49:12.117Z,99302.84
2022-08-23T18:51:41.531Z,99296.63
2022-08-23T18:54:09.690Z,99299.53
2022-08-23T18:56:37.277Z,99303.94
2022-08-23T18:59:06.146Z,99306.09
2022-08-23T19:01:40.591Z,99311.31
2022-08-23T19:04:10.186Z,99311.84
2022-08-23T19:06:38.632Z,99316.25
2022-08-23T19:09:08.106Z,99330.81
2022-08-23T19:11:39.693Z,99331.34
2022-08-23T19:14:09.958Z,99330.25
2022-08-23T19:16:38.061Z,99331.53
2022-08-23T19:19:06.842Z,99335.13
2022-08-23T19:21:34.139Z,99326.28
2022-08-23T19:24:02.414Z,99335.50
2022-08-23T19:26:34.315Z,99333.59
2022-08-23T19:29:07.789Z,99327.66
2022-08-23T19:31:41.735Z,99342.22
2022-08-23T19:34:11.345Z,99350.91
2022-08-23T19:36:48.343Z,99351.91
2022-08-23T19:39:19.866Z,99360.91
2022-08-23T19:41:48.556Z,99360.63
2022-08-23T19:44:17.722Z,99363.19
2022-08-23T19:46:45.717Z,99370.13
2022-08-23T19:49:14.586Z,99374.31
2022-08-23T19:51:43.787Z,99368.03
2022-08-23T19:54:13.600Z,99358.22
2022-08-23T19:56:49.821Z,99361.44
2022-08-23T19:59:23.306Z,99366.56
2022-08-23T20:01:53.523Z,99363.97
2022-08-23T20:04:23.111Z,99361.06
2022-08-23T20:06:51.045Z,99363.47
2022-08-23T20:09:21.465Z,99364.06
2022-08-23T20:11:52.611Z,99380.31
2022-08-23T20:14:23.188Z,99382.25
2022-08-23T20:16:51.020Z,99383.97
2022-08-23T20:19:18.675Z,99400.28
2022-08-23T20:21:46.136Z,99403.63
2022-08-23T20:24:15.091Z,99413.47
2022-08-23T20:26:46.802Z,99417.38
2022-08-23T20:29:21.153Z,99409.66
2022-08-23T20:31:56.061Z,99408.06
2022-08-23T20:34:26.509Z,99404.91
2022-08-23T20:36:56.197Z,99399.91
2022-08-23T20:39:25.688Z,99396.38
2022-08-23T20:41:53.980Z,99395.22
2022-08-23T20:44:25.826Z,99397.47
2022-08-23T20:46:56.025Z,99399.72
2022-08-23T20:49:25.949Z,99395.81
2022-08-23T20:51:52.998Z,99403.34
2022-08-23T20:54:20.288Z,99407.81
2022-08-23T20:56:51.448Z,99406.31
2022-08-23T20:59:19.811Z,99406.97
2022-08-23T21:01:48.092Z,99400.50
2022-08-23T21:04:15.857Z,99404.50
2022-08-23T21:06:50.559Z,99408.28
2022-08-23T21:09:23.423Z,99412.94
2022-08-23T21:11:53.296Z,99412.22
2022-08-23T21:14:20.883Z,99415.88
2022-08-23T21:16:48.126Z,99405.09
2022-08-23T21:19:17.080Z,99407.94
2022-08-23T21:21:44.750Z,99408.13
2022-08-23T21:24:13.429Z,99412.16
2022-08-23T21:26:41.724Z,99410.16
2022-08-23T21:29:10.620Z,99411.28
2022-08-23T21:31:39.189Z,99412.63
2022-08-23T21:34:08.166Z,99411.00
2022-08-23T21:36:36.299Z,99407.19
2022-08-23T21:39:05.141Z,99405.94
2022-08-23T21:41:40.584Z,99415.06
2022-08-23T21:44:12.333Z,99416.47
2022-08-23T21:46:40.946Z,99413.84
2022-08-23T21:49:09.206Z,99406.28
2022-08-23T21:51:40.720Z,99407.91
2022-08-23T21:54:10.882Z,99414.06
2022-08-23T21:56:39.134Z,99422.53
2022-08-23T21:59:10.443Z,99417.09
2022-08-23T22:01:37.803Z,99413.25
2022-08-23T22:04:09.830Z,99413.25
2022-08-23T22:06:38.215Z,99400.72
2022-08-23T22:09:09.885Z,99400.03
2022-08-23T22:11:40.583Z,99400.97
2022-08-23T22:14:15.409Z,99402.56
2022-08-23T22:16:54.989Z,99401.75
2022-08-23T22:19:22.972Z,99401.47
2022-08-23T22:21:52.376Z,99401.75
2022-08-23T22:24:25.475Z,99402.06
2022-08-23T22:26:55.267Z,99397.22
2022-08-23T22:29:23.636Z,99397.53
2022-08-23T22:31:51.318Z,99391.88
2022-08-23T22:34:18.658Z,99385.44
2022-08-23T22:36:46.251Z,99394.53
2022-08-23T22:39:20.244Z,99390.50
2022-08-23T22:41:47.261Z,99396.84
2022-08-23T22:44:14.308Z,99391.50
2022-08-23T22:46:42.216Z,99399.38
2022-08-23T22:49:09.478Z,99392.28
2022-08-23T22:51:38.466Z,99399.38
2022-08-23T22:54:09.716Z,99401.22
2022-08-23T22:56:43.289Z,99397.38
2022-08-23T22:59:12.359Z,99400.19
2022-08-23T23:01:47.986Z,99398.38
2022-08-23T23:04:18.837Z,99403.03
2022-08-23T23:06:48.861Z,99402.03
2022-08-23T23:09:16.971Z,99402.84
2022-08-23T23:11:45.739Z,99408.47
2022-08-23T23:14:16.419Z,99398.59
2022-08-23T23:16:44.909Z,99404.66
2022-08-23T23:19:31.365Z,99400.41
2022-08-23T23:21:59.736Z,99383.88
2022-08-23T23:24:31.915Z,99395.59
2022-08-23T23:27:00.677Z,99402.44
2022-08-23T23:29:30.002Z,99411.94
2022-08-23T23:31:57.910Z,99412.22
2022-08-23T23:34:26.649Z,99415.25
2022-08-23T23:36:57.366Z,99410.91
2022-08-23T23:39:25.339Z,99409.91
2022-08-23T23:41:53.176Z,99418.78
2022-08-23T23:44:24.317Z,99410.59
2022-08-23T23:47:01.815Z,99414.06
2022-08-23T23:49:33.219Z,99421.41
2022-08-23T23:52:04.664Z,99417.56
2022-08-23T23:54:33.655Z,99415.47
2022-08-23T23:57:02.397Z,99409.22
2022-08-23T23:59:29.800Z,99412.75
